Time;durP1;ratioP1;P1;durP2;ratioP2;P2;SDS_P1;SDS_P2;PMS_P1;PMS_P2;Temp;Humidity;BMP_temperature;BMP_pressure;BME280_temperature;BME280_humidity;BME280_pressure;Samples;Min_cycle;Max_cycle;Signal;HPM_P1;HPM_P2
2023/10/11 00:01:50;;;;;;;;;;;;;;;;;;2209147;59;3828;-19
2023/10/11 00:04:23;;;;;;;;;;;;;;;;;;2211995;66;4172;-19
2023/10/11 00:06:56;;;;;;;;;;;;;;;;;;2223581;58;3797;-18
2023/10/11 00:09:36;;;;;;;;;;;;;;;;;;2211774;58;2710;-19
2023/10/11 00:12:11;;;;;;;;;;;;;;;;;;2211557;58;2897;-19
2023/10/11 00:14:42;;;;;;;;;;;;;;;;;;2211926;59;2634;-19
2023/10/11 00:17:14;;;;;;;;;;;;;;;;;;2212354;58;2513;-19
2023/10/11 00:19:45;;;;;;;;;;;;;;;;;;2211731;58;3580;-19
2023/10/11 00:22:16;;;;;;;;;;;;;;;;;;2212821;66;2279;-18
2023/10/11 00:24:46;;;;;;;;;;;;;;;;;;2212343;66;3586;-19
2023/10/11 00:27:17;;;;;;;;;;;;;;;;;;2212612;58;3343;-19
2023/10/11 00:29:48;;;;;;;;;;;;;;;;;;2223466;66;3797;-19
2023/10/11 00:32:18;;;;;;;;;;;;;;;;;;2212528;58;2237;-19
2023/10/11 00:34:49;;;;;;;;;;;;;;;;;;2212261;66;2954;-18
2023/10/11 00:37:22;;;;;;;;;;;;;;;;;;2211991;59;2386;-20
2023/10/11 00:39:53;;;;;;;;;;;;;;;;;;2224810;58;3373;-18
2023/10/11 00:42:24;;;;;;;;;;;;;;;;;;2211941;59;1865;-19
2023/10/11 00:44:54;;;;;;;;;;;;;;;;;;2211946;58;3039;-19
2023/10/11 00:47:25;;;;;;;;;;;;;;;;;;2224401;66;3606;-19
2023/10/11 00:49:55;;;;;;;;;;;;;;;;;;2210711;58;2575;-18
2023/10/11 00:52:25;;;;;;;;;;;;;;;;;;2211382;58;2260;-19
2023/10/11 00:54:59;;;;;;;;;;;;;;;;;;2211471;58;2465;-19
2023/10/11 00:57:30;;;;;;;;;;;;;;;;;;2211683;58;3876;-18
2023/10/11 01:00:00;;;;;;;;;;;;;;;;;;2209997;59;3584;-19
2023/10/11 01:02:32;;;;;;;;;;;;;;;;;;2224840;66;2561;-19
2023/10/11 01:05:06;;;;;;;;;;;;;;;;;;2211728;58;3768;-18
2023/10/11 01:07:37;;;;;;;;;;;;;;;;;;2212451;58;3350;-18
2023/10/11 01:10:08;;;;;;;;;;;;;;;;;;2210367;58;3472;-19
2023/10/11 01:12:41;;;;;;;;;;;;;;;;;;2224588;58;2521;-18
2023/10/11 01:15:16;;;;;;;;;;;;;;;;;;2222896;66;2023;-19
2023/10/11 01:17:49;;;;;;;;;;;;;;;;;;2211231;59;3109;-18
2023/10/11 01:20:19;;;;;;;;;;;;;;;;;;2211136;58;2958;-19
2023/10/11 01:22:50;;;;;;;;;;;;;;;;;;2208967;59;2513;-18
2023/10/11 01:25:20;;;;;;;;;;;;;;;;;;2211013;59;4553;-19
2023/10/11 01:27:50;;;;;;;;;;;;;;;;;;2210630;58;3353;-19
2023/10/11 01:30:20;;;;;;;;;;;;;;;;;;2211919;59;2415;-19
2023/10/11 01:32:54;;;;;;;;;;;;;;;;;;2211420;58;4507;-19
2023/10/11 01:35:28;;;;;;;;;;;;;;;;;;2211073;59;3415;-19
2023/10/11 01:37:58;;;;;;;;;;;;;;;;;;2209046;58;4120;-18
2023/10/11 01:40:31;;;;;;;;;;;;;;;;;;2211456;58;2851;-18
2023/10/11 01:43:03;;;;;;;;;;;;;;;;;;2209509;58;3417;-19
2023/10/11 01:45:33;;;;;;;;;;;;;;;;;;2212043;58;2179;-18
2023/10/11 01:48:03;;;;;;;;;;;;;;;;;;2222843;58;3562;-19
2023/10/11 01:50:37;;;;;;;;;;;;;;;;;;2223336;58;2664;-18
2023/10/11 01:53:08;;;;;;;;;;;;;;;;;;2222621;58;3724;-18
2023/10/11 01:55:39;;;;;;;;;;;;;;;;;;2224805;58;2490;-19
2023/10/11 01:58:12;;;;;;;;;;;;;;;;;;2210709;59;3764;-19
2023/10/11 02:00:43;;;;;;;;;;;;;;;;;;2212587;59;2000;-19
2023/10/11 02:03:16;;;;;;;;;;;;;;;;;;2210828;66;3440;-18
2023/10/11 02:05:47;;;;;;;;;;;;;;;;;;2224517;58;3676;-19
2023/10/11 02:08:18;;;;;;;;;;;;;;;;;;2211535;66;2199;-19
2023/10/11 02:10:48;;;;;;;;;;;;;;;;;;2211314;66;4359;-18
2023/10/11 02:13:18;;;;;;;;;;;;;;;;;;2212252;59;2483;-19
2023/10/11 02:15:50;;;;;;;;;;;;;;;;;;2210701;66;3465;-19
2023/10/11 02:18:20;;;;;;;;;;;;;;;;;;2212492;59;2692;-18
2023/10/11 02:20:55;;;;;;;;;;;;;;;;;;2209765;58;3491;-19
2023/10/11 02:23:25;;;;;;;;;;;;;;;;;;2210361;59;4236;-18
2023/10/11 02:25:56;;;;;;;;;;;;;;;;;;2219782;58;2745;-19
2023/10/11 02:28:27;;;;;;;;;;;;;;;;;;2211944;58;2335;-18
2023/10/11 02:30:57;;;;;;;;;;;;;;;;;;2223481;58;2502;-18
2023/10/11 02:33:31;;;;;;;;;;;;;;;;;;2212644;66;3451;-19
2023/10/11 02:36:08;;;;;;;;;;;;;;;;;;2210225;66;2579;-18
2023/10/11 02:38:47;;;;;;;;;;;;;;;;;;2223032;58;2758;-19
2023/10/11 02:41:26;;;;;;;;;;;;;;;;;;2210836;58;3911;-19
2023/10/11 02:43:57;;;;;;;;;;;;;;;;;;2223153;66;3743;-18
2023/10/11 02:46:28;;;;;;;;;;;;;;;;;;2211812;58;2864;-18
2023/10/11 02:49:05;;;;;;;;;;;;;;;;;;2211405;66;3401;-19
2023/10/11 02:51:36;;;;;;;;;;;;;;;;;;2223667;58;2821;-18
2023/10/11 02:54:06;;;;;;;;;;;;;;;;;;2210043;59;2292;-19
2023/10/11 02:56:46;;;;;;;;;;;;;;;;;;2223250;58;4426;-19
2023/10/11 02:59:22;;;;;;;;;;;;;;;;;;2210897;66;2599;-19
2023/10/11 03:01:59;;;;;;;;;;;;;;;;;;2211026;66;3558;-18
2023/10/11 03:04:43;;;;;;;;;;;;;;;;;;2211703;66;4248;-19
2023/10/11 03:07:21;;;;;;;;;;;;;;;;;;2210809;58;4255;-18
2023/10/11 03:09:54;;;;;;;;;;;;;;;;;;2210879;59;2852;-19
2023/10/11 03:12:30;;;;;;;;;;;;;;;;;;2223928;58;5399;-19
2023/10/11 03:15:08;;;;;;;;;;;;;;;;;;2210513;59;3755;-18
2023/10/11 03:17:41;;;;;;;;;;;;;;;;;;2224664;58;2692;-19
2023/10/11 03:20:28;;;;;;;;;;;;;;;;;;2210841;59;2749;-19
2023/10/11 03:22:59;;;;;;;;;;;;;;;;;;2211025;59;2338;-18
2023/10/11 03:25:30;;;;;;;;;;;;;;;;;;2211123;66;2678;-18
2023/10/11 03:28:02;;;;;;;;;;;;;;;;;;2210662;59;4045;-18
2023/10/11 03:30:35;;;;;;;;;;;;;;;;;;2211657;59;2845;-19
2023/10/11 03:33:07;;;;;;;;;;;;;;;;;;2223411;58;2410;-18
2023/10/11 03:35:38;;;;;;;;;;;;;;;;;;2211611;67;2635;-18
2023/10/11 03:38:17;;;;;;;;;;;;;;;;;;2222906;58;5078;-18
2023/10/11 03:41:14;;;;;;;;;;;;;;;;;;2212419;58;3502;-18
2023/10/11 03:43:45;;;;;;;;;;;;;;;;;;2212701;66;3611;-18
2023/10/11 03:46:15;;;;;;;;;;;;;;;;;;2211024;58;4347;-18
2023/10/11 03:48:51;;;;;;;;;;;;;;;;;;2225243;66;3427;-18
2023/10/11 03:51:22;;;;;;;;;;;;;;;;;;2222856;58;3597;-18
2023/10/11 03:53:53;;;;;;;;;;;;;;;;;;2211781;66;2758;-18
2023/10/11 03:56:23;;;;;;;;;;;;;;;;;;2211984;59;2831;-18
2023/10/11 03:58:53;;;;;;;;;;;;;;;;;;2211209;66;3687;-19
2023/10/11 04:01:23;;;;;;;;;;;;;;;;;;2211865;66;4290;-18
2023/10/11 04:03:56;;;;;;;;;;;;;;;;;;2212132;66;3475;-19
2023/10/11 04:06:27;;;;;;;;;;;;;;;;;;2212162;58;2397;-19
2023/10/11 04:09:02;;;;;;;;;;;;;;;;;;2211644;66;2468;-18
2023/10/11 04:11:54;;;;;;;;;;;;;;;;;;2213226;59;1747;-18
2023/10/11 04:14:32;;;;;;;;;;;;;;;;;;2212059;66;3388;-18
2023/10/11 04:17:04;;;;;;;;;;;;;;;;;;2212105;66;2402;-18
2023/10/11 04:19:39;;;;;;;;;;;;;;;;;;2213027;59;2514;-18
2023/10/11 04:22:12;;;;;;;;;;;;;;;;;;2211794;66;2221;-18
2023/10/11 04:24:45;;;;;;;;;;;;;;;;;;2225335;66;2580;-18
2023/10/11 04:29:51;;;;;;;;;;;;;;;;;;2212647;59;4910;-18
2023/10/11 04:32:41;;;;;;;;;;;;;;;;;;2210798;66;3828;-18
2023/10/11 04:35:25;;;;;;;;;;;;;;;;;;2222036;66;4242;-18
2023/10/11 04:38:01;;;;;;;;;;;;;;;;;;2223800;58;3432;-18
2023/10/11 04:43:05;;;;;;;;;;;;;;;;;;2223863;58;3975;-18
2023/10/11 04:45:45;;;;;;;;;;;;;;;;;;2211867;59;2249;-19
2023/10/11 04:48:19;;;;;;;;;;;;;;;;;;2211034;66;2959;-18
2023/10/11 04:50:50;;;;;;;;;;;;;;;;;;2212799;59;2253;-18
2023/10/11 04:53:22;;;;;;;;;;;;;;;;;;2210406;59;2685;-18
2023/10/11 04:56:52;;;;;;;;;;;;;;;;;;2212217;59;3688;-18
2023/10/11 04:59:06;;;;;;;;;;;;;;;;;;2211214;66;2369;-18
2023/10/11 05:05:21;;;;;;;;;;;;;;;;;;2222117;66;2479;-18
2023/10/11 05:07:22;;;;;;;;;;;;;;;;;;2211964;59;4364;-18
2023/10/11 05:10:29;;;;;;;;;;;;;;;;;;2211970;66;2647;-18
2023/10/11 05:13:04;;;;;;;;;;;;;;;;;;2225083;58;3399;-19
2023/10/11 05:15:52;;;;;;;;;;;;;;;;;;2211570;66;2694;-18
2023/10/11 05:18:24;;;;;;;;;;;;;;;;;;2210883;58;2408;-19
2023/10/11 05:20:57;;;;;;;;;;;;;;;;;;2212380;59;3251;-18
2023/10/11 05:26:36;;;;;;;;;;;;;;;;;;2221279;59;2823;-19
2023/10/11 05:29:13;;;;;;;;;;;;;;;;;;2224266;58;3554;-19
2023/10/11 05:32:14;;;;;;;;;;;;;;;;;;2224781;58;3412;-18
2023/10/11 05:35:25;;;;;;;;;;;;;;;;;;2212615;66;2637;-19
2023/10/11 05:51:31;;;;;;;;;;;;;;;;;;2211548;58;3854;-18
2023/10/11 05:54:03;;;;;;;;;;;;;;;;;;2210282;58;2926;-18
2023/10/11 05:56:34;;;;;;;;;;;;;;;;;;2211030;58;3646;-18
2023/10/11 05:59:06;;;;;;;;;;;;;;;;;;2208972;58;3009;-18
2023/10/11 06:01:37;;;;;;;;;;;;;;;;;;2210035;66;3336;-18
2023/10/11 06:04:08;;;;;;;;;;;;;;;;;;2223257;66;2907;-18
2023/10/11 06:09:17;;;;;;;;;;;;;;;;;;2222536;53;3238;-20
2023/10/11 06:11:48;;;;;;;;;;;;;;;;;;2220960;59;1794;-19
2023/10/11 06:14:18;;;;;;;;;;;;;;;;;;2221881;58;3689;-20
2023/10/11 06:16:55;;;;;;;;;;;;;;;;;;2218517;58;2291;-19
2023/10/11 06:19:26;;;;;;;;;;;;;;;;;;2212912;58;3460;-20
2023/10/11 06:21:56;;;;;;;;;;;;;;;;;;2217236;59;1661;-19
2023/10/11 06:24:32;;;;;;;;;;;;;;;;;;2216206;66;2450;-19
2023/10/11 06:29:55;;;;;;;;;;;;;;;;;;2213027;59;3737;-20
2023/10/11 06:32:29;;;;;;;;;;;;;;;;;;2215441;58;2421;-20
2023/10/11 06:34:59;;;;;;;;;;;;;;;;;;2217913;58;3342;-19
2023/10/11 06:37:34;;;;;;;;;;;;;;;;;;2213976;59;2420;-20
2023/10/11 06:42:35;;;;;;;;;;;;;;;;;;2217312;58;2250;-20
2023/10/11 06:45:06;;;;;;;;;;;;;;;;;;2212500;59;2401;-20
2023/10/11 06:47:36;;;;;;;;;;;;;;;;;;2213840;59;4194;-20
2023/10/11 06:50:13;;;;;;;;;;;;;;;;;;2215762;58;2904;-19
2023/10/11 06:52:43;;;;;;;;;;;;;;;;;;2217396;58;2368;-20
2023/10/11 06:55:17;;;;;;;;;;;;;;;;;;2214935;58;3033;-19
2023/10/11 06:57:51;;;;;;;;;;;;;;;;;;2216293;66;2553;-20
2023/10/11 07:01:05;;;;;;;;;;;;;;;;;;2216007;59;3737;-20
2023/10/11 07:05:59;;;;;;;;;;;;;;;;;;2216505;58;2290;-19
2023/10/11 07:08:32;;;;;;;;;;;;;;;;;;2215080;58;2598;-19
2023/10/11 07:11:18;;;;;;;;;;;;;;;;;;2213351;66;3652;-19
2023/10/11 07:13:56;;;;;;;;;;;;;;;;;;2216368;59;3479;-19
2023/10/11 07:16:31;;;;;;;;;;;;;;;;;;2212270;66;2365;-19
2023/10/11 07:19:01;;;;;;;;;;;;;;;;;;2215356;58;2893;-20
2023/10/11 07:24:39;;;;;;;;;;;;;;;;;;2215648;66;2818;-20
2023/10/11 07:27:12;;;;;;;;;;;;;;;;;;2215663;66;2571;-20
2023/10/11 07:29:42;;;;;;;;;;;;;;;;;;2217386;58;2900;-20
2023/10/11 07:32:13;;;;;;;;;;;;;;;;;;2216435;58;2648;-20
2023/10/11 07:34:47;;;;;;;;;;;;;;;;;;2216742;66;3578;-20
2023/10/11 07:37:26;;;;;;;;;;;;;;;;;;2215117;66;3644;-20
2023/10/11 07:40:09;;;;;;;;;;;;;;;;;;2212765;58;4255;-19
2023/10/11 07:42:40;;;;;;;;;;;;;;;;;;2216308;59;2363;-20
2023/10/11 07:45:13;;;;;;;;;;;;;;;;;;2216023;58;2609;-20
2023/10/11 07:47:46;;;;;;;;;;;;;;;;;;2216273;58;3017;-20
2023/10/11 07:50:22;;;;;;;;;;;;;;;;;;2212937;59;3465;-20
2023/10/11 07:52:52;;;;;;;;;;;;;;;;;;2213322;59;2787;-20
2023/10/11 07:55:26;;;;;;;;;;;;;;;;;;2216206;58;2806;-20
2023/10/11 07:58:00;;;;;;;;;;;;;;;;;;2217097;59;2655;-20
2023/10/11 08:00:30;;;;;;;;;;;;;;;;;;2216489;66;2198;-20
2023/10/11 08:03:04;;;;;;;;;;;;;;;;;;2214561;59;2298;-20
2023/10/11 08:05:45;;;;;;;;;;;;;;;;;;2214342;58;2364;-20
2023/10/11 08:08:20;;;;;;;;;;;;;;;;;;2216062;58;2221;-20
2023/10/11 08:10:52;;;;;;;;;;;;;;;;;;2216993;58;1716;-20
2023/10/11 08:13:27;;;;;;;;;;;;;;;;;;2215230;58;2145;-20
2023/10/11 08:15:58;;;;;;;;;;;;;;;;;;2213947;59;3143;-20
2023/10/11 08:18:28;;;;;;;;;;;;;;;;;;2215410;58;3938;-20
2023/10/11 08:20:58;;;;;;;;;;;;;;;;;;2215833;59;2321;-20
2023/10/11 08:23:29;;;;;;;;;;;;;;;;;;2214116;58;2595;-20
2023/10/11 08:26:05;;;;;;;;;;;;;;;;;;2216778;58;2113;-20
2023/10/11 08:28:36;;;;;;;;;;;;;;;;;;2215108;58;2639;-20
2023/10/11 08:31:09;;;;;;;;;;;;;;;;;;2213099;59;2802;-20
2023/10/11 08:33:39;;;;;;;;;;;;;;;;;;2213273;59;3605;-20
2023/10/11 08:36:10;;;;;;;;;;;;;;;;;;2213063;66;2406;-21
2023/10/11 08:38:40;;;;;;;;;;;;;;;;;;2217056;58;2701;-21
2023/10/11 08:41:15;;;;;;;;;;;;;;;;;;2215310;58;3571;-21
2023/10/11 08:43:46;;;;;;;;;;;;;;;;;;2216543;58;3567;-20
2023/10/11 08:46:20;;;;;;;;;;;;;;;;;;2215755;58;2599;-20
2023/10/11 08:48:50;;;;;;;;;;;;;;;;;;2216345;58;2381;-20
2023/10/11 08:51:22;;;;;;;;;;;;;;;;;;2215655;58;2986;-20
2023/10/11 08:54:00;;;;;;;;;;;;;;;;;;2210715;59;3983;-20
2023/10/11 08:56:32;;;;;;;;;;;;;;;;;;2211928;59;2728;-20
2023/10/11 08:59:03;;;;;;;;;;;;;;;;;;2216239;66;2741;-20
2023/10/11 09:01:36;;;;;;;;;;;;;;;;;;2212400;59;2961;-24
2023/10/11 09:04:16;;;;;;;;;;;;;;;;;;2211362;59;2791;-20
2023/10/11 09:06:47;;;;;;;;;;;;;;;;;;2217043;58;2468;-20
2023/10/11 09:09:32;;;;;;;;;;;;;;;;;;2215734;58;2509;-21
2023/10/11 09:12:23;;;;;;;;;;;;;;;;;;2213180;59;2651;-20
2023/10/11 09:14:53;;;;;;;;;;;;;;;;;;2213416;59;2046;-20
2023/10/11 09:17:27;;;;;;;;;;;;;;;;;;2212315;58;2828;-21
2023/10/11 09:20:01;;;;;;;;;;;;;;;;;;2212114;58;3994;-21
2023/10/11 09:22:45;;;;;;;;;;;;;;;;;;2214448;58;2698;-21
2023/10/11 09:25:21;;;;;;;;;;;;;;;;;;2215406;59;3793;-21
2023/10/11 09:27:53;;;;;;;;;;;;;;;;;;2215747;66;3441;-21
2023/10/11 09:30:27;;;;;;;;;;;;;;;;;;2214861;58;4285;-21
2023/10/11 09:33:15;;;;;;;;;;;;;;;;;;2212305;66;2830;-21
2023/10/11 09:35:49;;;;;;;;;;;;;;;;;;2215255;59;1775;-21
2023/10/11 09:38:20;;;;;;;;;;;;;;;;;;2214393;58;3274;-21
2023/10/11 09:40:52;;;;;;;;;;;;;;;;;;2216207;58;2489;-20
2023/10/11 09:43:23;;;;;;;;;;;;;;;;;;2215629;58;2337;-21
2023/10/11 09:45:53;;;;;;;;;;;;;;;;;;2216211;59;3425;-21
2023/10/11 09:48:24;;;;;;;;;;;;;;;;;;2215994;58;2394;-21
2023/10/11 09:50:57;;;;;;;;;;;;;;;;;;2213283;59;3193;-20
2023/10/11 09:53:30;;;;;;;;;;;;;;;;;;2215411;58;2268;-21
2023/10/11 09:56:15;;;;;;;;;;;;;;;;;;2212011;58;2871;-20
2023/10/11 09:58:54;;;;;;;;;;;;;;;;;;2215325;59;3604;-21
2023/10/11 10:01:32;;;;;;;;;;;;;;;;;;2216085;58;2506;-20
2023/10/11 10:04:06;;;;;;;;;;;;;;;;;;2216328;58;2625;-21
2023/10/11 10:06:36;;;;;;;;;;;;;;;;;;2214855;58;2374;-21
2023/10/11 10:09:18;;;;;;;;;;;;;;;;;;2214410;59;2326;-21
2023/10/11 10:12:06;;;;;;;;;;;;;;;;;;2215976;58;3013;-21
2023/10/11 10:14:38;;;;;;;;;;;;;;;;;;2214257;58;2595;-21
2023/10/11 10:17:13;;;;;;;;;;;;;;;;;;2212922;58;2986;-21
2023/10/11 10:19:45;;;;;;;;;;;;;;;;;;2214994;58;2720;-21
2023/10/11 10:22:16;;;;;;;;;;;;;;;;;;2215432;59;2440;-21
2023/10/11 10:24:47;;;;;;;;;;;;;;;;;;2212204;59;2683;-21
2023/10/11 10:27:33;;;;;;;;;;;;;;;;;;2206947;58;2437;-21
2023/10/11 10:30:05;;;;;;;;;;;;;;;;;;2211614;58;2658;-21
2023/10/11 10:32:35;;;;;;;;;;;;;;;;;;2214812;58;2597;-20
2023/10/11 10:35:20;;;;;;;;;;;;;;;;;;2215306;58;2299;-20
2023/10/11 10:37:56;;;;;;;;;;;;;;;;;;2215496;58;1882;-21
2023/10/11 10:40:26;;;;;;;;;;;;;;;;;;2214673;58;3407;-21
2023/10/11 10:43:08;;;;;;;;;;;;;;;;;;2216061;58;1651;-21
2023/10/11 10:45:39;;;;;;;;;;;;;;;;;;2214134;58;2101;-21
2023/10/11 10:48:18;;;;;;;;;;;;;;;;;;2214945;59;2002;-20
2023/10/11 10:50:53;;;;;;;;;;;;;;;;;;2211982;66;2051;-21
2023/10/11 10:53:36;;;;;;;;;;;;;;;;;;2215593;59;2296;-21
2023/10/11 10:56:18;;;;;;;;;;;;;;;;;;2215681;66;1836;-21
2023/10/11 10:58:48;;;;;;;;;;;;;;;;;;2211618;59;2611;-21
2023/10/11 11:01:26;;;;;;;;;;;;;;;;;;2211728;58;2885;-22
2023/10/11 11:03:57;;;;;;;;;;;;;;;;;;2215514;66;2299;-21
2023/10/11 11:06:37;;;;;;;;;;;;;;;;;;2215296;58;2669;-21
2023/10/11 11:09:27;;;;;;;;;;;;;;;;;;2215774;58;2433;-21
2023/10/11 11:12:17;;;;;;;;;;;;;;;;;;2215567;59;3140;-21
2023/10/11 11:14:54;;;;;;;;;;;;;;;;;;2214976;59;2594;-21
2023/10/11 11:17:28;;;;;;;;;;;;;;;;;;2214446;58;2478;-21
2023/10/11 11:22:54;;;;;;;;;;;;;;;;;;2215318;59;1838;-21
2023/10/11 11:28:18;;;;;;;;;;;;;;;;;;2214972;58;2722;-21
2023/10/11 11:30:51;;;;;;;;;;;;;;;;;;2212512;58;2289;-21
2023/10/11 11:33:28;;;;;;;;;;;;;;;;;;2214749;59;3425;-21
2023/10/11 11:35:58;;;;;;;;;;;;;;;;;;2215463;58;2118;-21
2023/10/11 11:38:36;;;;;;;;;;;;;;;;;;2214912;58;2722;-21
2023/10/11 11:41:15;;;;;;;;;;;;;;;;;;2215769;58;1944;-21
2023/10/11 11:43:48;;;;;;;;;;;;;;;;;;2214032;66;1426;-21
2023/10/11 11:46:19;;;;;;;;;;;;;;;;;;2210454;59;2136;-22
2023/10/11 11:48:50;;;;;;;;;;;;;;;;;;2214804;58;2183;-21
2023/10/11 11:51:20;;;;;;;;;;;;;;;;;;2215074;58;1310;-22
2023/10/11 11:53:50;;;;;;;;;;;;;;;;;;2215174;66;1540;-21
2023/10/11 11:56:22;;;;;;;;;;;;;;;;;;2208157;58;2543;-21
2023/10/11 11:59:00;;;;;;;;;;;;;;;;;;2216010;58;2943;-21
2023/10/11 12:01:30;;;;;;;;;;;;;;;;;;2214690;58;3245;-21
2023/10/11 12:04:00;;;;;;;;;;;;;;;;;;2217101;58;2369;-19
2023/10/11 12:06:34;;;;;;;;;;;;;;;;;;2210342;59;1997;-19
2023/10/11 12:09:17;;;;;;;;;;;;;;;;;;2216010;58;3651;-21
2023/10/11 12:11:53;;;;;;;;;;;;;;;;;;2211672;59;3517;-21
2023/10/11 12:14:23;;;;;;;;;;;;;;;;;;2212312;58;3215;-21
2023/10/11 12:16:55;;;;;;;;;;;;;;;;;;2215911;58;3782;-21
2023/10/11 12:19:32;;;;;;;;;;;;;;;;;;2215056;58;2509;-21
2023/10/11 12:22:03;;;;;;;;;;;;;;;;;;2215692;58;3034;-21
2023/10/11 12:24:34;;;;;;;;;;;;;;;;;;2214813;59;2976;-21
2023/10/11 12:27:04;;;;;;;;;;;;;;;;;;2210660;58;2317;-21
2023/10/11 12:29:37;;;;;;;;;;;;;;;;;;2214569;58;2675;-21
2023/10/11 12:32:07;;;;;;;;;;;;;;;;;;2215232;58;2380;-21
2023/10/11 12:34:37;;;;;;;;;;;;;;;;;;2214474;59;2867;-21
2023/10/11 12:37:08;;;;;;;;;;;;;;;;;;2215807;66;2734;-21
2023/10/11 12:39:38;;;;;;;;;;;;;;;;;;2211378;59;2893;-21
2023/10/11 12:42:11;;;;;;;;;;;;;;;;;;2214856;58;2619;-21
2023/10/11 12:44:41;;;;;;;;;;;;;;;;;;2210129;58;2309;-21
2023/10/11 12:47:11;;;;;;;;;;;;;;;;;;2214859;59;2275;-21
2023/10/11 12:49:42;;;;;;;;;;;;;;;;;;2213675;58;2859;-21
2023/10/11 12:52:17;;;;;;;;;;;;;;;;;;2215538;58;2594;-21
2023/10/11 12:54:47;;;;;;;;;;;;;;;;;;2214769;58;1967;-21
2023/10/11 12:57:18;;;;;;;;;;;;;;;;;;2210739;59;3105;-21
2023/10/11 12:59:48;;;;;;;;;;;;;;;;;;2215040;59;1965;-21
2023/10/11 13:02:21;;;;;;;;;;;;;;;;;;2215040;58;2727;-21
2023/10/11 13:04:52;;;;;;;;;;;;;;;;;;2213837;58;2582;-21
2023/10/11 13:07:26;;;;;;;;;;;;;;;;;;2211660;58;3985;-21
2023/10/11 13:10:03;;;;;;;;;;;;;;;;;;2214744;58;1801;-21
2023/10/11 13:12:37;;;;;;;;;;;;;;;;;;2211772;59;2153;-21
2023/10/11 13:15:08;;;;;;;;;;;;;;;;;;2215748;58;1946;-21
2023/10/11 13:17:40;;;;;;;;;;;;;;;;;;2215390;58;1902;-21
2023/10/11 13:20:18;;;;;;;;;;;;;;;;;;2215404;58;3785;-21
2023/10/11 13:22:49;;;;;;;;;;;;;;;;;;2211512;58;2816;-21
2023/10/11 13:25:23;;;;;;;;;;;;;;;;;;2209455;59;2702;-21
2023/10/11 13:27:54;;;;;;;;;;;;;;;;;;2210888;66;3799;-21
2023/10/11 13:30:25;;;;;;;;;;;;;;;;;;2215643;58;3042;-21
2023/10/11 13:32:57;;;;;;;;;;;;;;;;;;2211726;66;2799;-21
2023/10/11 13:35:28;;;;;;;;;;;;;;;;;;2211027;58;3723;-21
2023/10/11 13:38:08;;;;;;;;;;;;;;;;;;2213253;58;2367;-21
2023/10/11 13:40:39;;;;;;;;;;;;;;;;;;2211131;59;3505;-21
2023/10/11 13:43:12;;;;;;;;;;;;;;;;;;2215430;58;3612;-21
2023/10/11 13:45:56;;;;;;;;;;;;;;;;;;2214361;58;2755;-18
2023/10/11 13:48:40;;;;;;;;;;;;;;;;;;2214557;58;3475;-18
2023/10/11 13:51:17;;;;;;;;;;;;;;;;;;2215620;58;2703;-19
2023/10/11 13:53:50;;;;;;;;;;;;;;;;;;2213984;58;2669;-18
2023/10/11 13:56:21;;;;;;;;;;;;;;;;;;2212383;58;3585;-18
2023/10/11 13:58:51;;;;;;;;;;;;;;;;;;2215725;58;2165;-18
2023/10/11 14:04:14;;;;;;;;;;;;;;;;;;2215788;59;2681;-20
2023/10/11 14:07:03;;;;;;;;;;;;;;;;;;2210971;59;1941;-20
2023/10/11 14:09:43;;;;;;;;;;;;;;;;;;2211761;59;3289;-23
2023/10/11 14:12:17;;;;;;;;;;;;;;;;;;2214343;59;2249;-20
2023/10/11 14:14:55;;;;;;;;;;;;;;;;;;2214359;59;3872;-21
2023/10/11 14:17:26;;;;;;;;;;;;;;;;;;2217569;58;3339;-20
2023/10/11 14:19:56;;;;;;;;;;;;;;;;;;2214586;58;3098;-20
2023/10/11 14:22:27;;;;;;;;;;;;;;;;;;2216232;66;1902;-20
2023/10/11 14:24:59;;;;;;;;;;;;;;;;;;2209226;58;3667;-21
2023/10/11 14:27:29;;;;;;;;;;;;;;;;;;2215284;66;2415;-21
2023/10/11 14:30:00;;;;;;;;;;;;;;;;;;2214032;59;2480;-21
2023/10/11 14:32:33;;;;;;;;;;;;;;;;;;2215669;58;2213;-21
2023/10/11 14:35:08;;;;;;;;;;;;;;;;;;2216126;58;2096;-20
2023/10/11 14:37:42;;;;;;;;;;;;;;;;;;2214295;58;2942;-21
2023/10/11 14:40:16;;;;;;;;;;;;;;;;;;2216287;58;1991;-20
2023/10/11 14:42:47;;;;;;;;;;;;;;;;;;2214676;58;2270;-20
2023/10/11 14:45:21;;;;;;;;;;;;;;;;;;2213914;59;2451;-20
2023/10/11 14:47:55;;;;;;;;;;;;;;;;;;2213696;58;3478;-20
2023/10/11 14:50:26;;;;;;;;;;;;;;;;;;2215686;58;2505;-20
2023/10/11 14:53:02;;;;;;;;;;;;;;;;;;2214190;58;3893;-20
2023/10/11 14:55:34;;;;;;;;;;;;;;;;;;2209129;58;2898;-18
2023/10/11 14:58:05;;;;;;;;;;;;;;;;;;2212013;59;2679;-18
2023/10/11 15:00:35;;;;;;;;;;;;;;;;;;2215249;59;2379;-18
2023/10/11 15:03:06;;;;;;;;;;;;;;;;;;2212080;59;2460;-18
2023/10/11 15:05:36;;;;;;;;;;;;;;;;;;2211467;59;2348;-18
2023/10/11 15:08:06;;;;;;;;;;;;;;;;;;2216320;58;3015;-18
2023/10/11 15:10:37;;;;;;;;;;;;;;;;;;2214150;59;2716;-18
2023/10/11 15:13:09;;;;;;;;;;;;;;;;;;2215855;58;2451;-18
2023/10/11 15:15:40;;;;;;;;;;;;;;;;;;2215671;58;3152;-18
2023/10/11 15:18:12;;;;;;;;;;;;;;;;;;2216118;59;3464;-18
2023/10/11 15:20:42;;;;;;;;;;;;;;;;;;2211645;59;2615;-18
2023/10/11 15:23:12;;;;;;;;;;;;;;;;;;2212284;66;3291;-18
2023/10/11 15:25:43;;;;;;;;;;;;;;;;;;2214383;66;4293;-18
2023/10/11 15:28:17;;;;;;;;;;;;;;;;;;2215982;59;3342;-18
2023/10/11 15:30:47;;;;;;;;;;;;;;;;;;2215022;58;2463;-18
2023/10/11 15:33:17;;;;;;;;;;;;;;;;;;2211856;58;3793;-18
2023/10/11 15:35:52;;;;;;;;;;;;;;;;;;2215249;59;2130;-18
2023/10/11 15:38:24;;;;;;;;;;;;;;;;;;2214576;58;2031;-18
2023/10/11 15:41:04;;;;;;;;;;;;;;;;;;2210920;66;2030;-18
2023/10/11 15:43:34;;;;;;;;;;;;;;;;;;2214411;59;2056;-18
2023/10/11 15:46:05;;;;;;;;;;;;;;;;;;2214380;59;2001;-18
2023/10/11 15:48:36;;;;;;;;;;;;;;;;;;2212776;59;2547;-18
2023/10/11 15:51:09;;;;;;;;;;;;;;;;;;2214272;58;3626;-18
2023/10/11 15:53:42;;;;;;;;;;;;;;;;;;2210096;59;3079;-18
2023/10/11 15:56:13;;;;;;;;;;;;;;;;;;2214089;59;3635;-18
2023/10/11 15:58:44;;;;;;;;;;;;;;;;;;2213319;66;2824;-18
2023/10/11 16:01:14;;;;;;;;;;;;;;;;;;2210504;59;3347;-18
2023/10/11 16:03:50;;;;;;;;;;;;;;;;;;2214528;58;3724;-19
2023/10/11 16:06:24;;;;;;;;;;;;;;;;;;2214387;58;2946;-18
2023/10/11 16:08:54;;;;;;;;;;;;;;;;;;2214474;59;2408;-19
2023/10/11 16:11:26;;;;;;;;;;;;;;;;;;2209652;58;3392;-18
2023/10/11 16:13:57;;;;;;;;;;;;;;;;;;2214313;59;3588;-18
2023/10/11 16:16:27;;;;;;;;;;;;;;;;;;2214866;59;3271;-18
2023/10/11 16:18:58;;;;;;;;;;;;;;;;;;2210988;59;2479;-18
2023/10/11 16:21:28;;;;;;;;;;;;;;;;;;2215531;59;2352;-18
2023/10/11 16:24:00;;;;;;;;;;;;;;;;;;2215041;59;2452;-18
2023/10/11 16:26:30;;;;;;;;;;;;;;;;;;2215435;58;2405;-18
2023/10/11 16:29:03;;;;;;;;;;;;;;;;;;2212203;59;2543;-18
2023/10/11 16:31:34;;;;;;;;;;;;;;;;;;2215619;59;2362;-18
2023/10/11 16:34:10;;;;;;;;;;;;;;;;;;2216987;59;1991;-18
2023/10/11 16:36:41;;;;;;;;;;;;;;;;;;2214143;59;2566;-18
2023/10/11 16:39:16;;;;;;;;;;;;;;;;;;2213321;59;2699;-18
2023/10/11 16:41:46;;;;;;;;;;;;;;;;;;2214693;58;3363;-18
2023/10/11 16:44:16;;;;;;;;;;;;;;;;;;2216423;59;3147;-18
2023/10/11 16:46:47;;;;;;;;;;;;;;;;;;2211856;59;2301;-19
2023/10/11 16:49:19;;;;;;;;;;;;;;;;;;2212247;58;2618;-18
2023/10/11 16:51:50;;;;;;;;;;;;;;;;;;2213718;58;3472;-18
2023/10/11 16:54:20;;;;;;;;;;;;;;;;;;2208887;59;2709;-18
2023/10/11 16:56:53;;;;;;;;;;;;;;;;;;2212836;58;2670;-17
2023/10/11 16:59:23;;;;;;;;;;;;;;;;;;2216707;59;2380;-18
2023/10/11 17:01:53;;;;;;;;;;;;;;;;;;2215274;59;3393;-17
2023/10/11 17:04:27;;;;;;;;;;;;;;;;;;2213334;59;2689;-18
2023/10/11 17:06:57;;;;;;;;;;;;;;;;;;2215029;58;2505;-18
2023/10/11 17:09:29;;;;;;;;;;;;;;;;;;2215983;66;3233;-18
2023/10/11 17:12:00;;;;;;;;;;;;;;;;;;2214335;58;2914;-18
2023/10/11 17:14:30;;;;;;;;;;;;;;;;;;2216224;58;2726;-18
2023/10/11 17:17:00;;;;;;;;;;;;;;;;;;2215158;59;2982;-18
2023/10/11 17:19:31;;;;;;;;;;;;;;;;;;2215171;58;2439;-18
2023/10/11 17:22:04;;;;;;;;;;;;;;;;;;2214403;59;3716;-17
2023/10/11 17:24:34;;;;;;;;;;;;;;;;;;2212551;59;2361;-17
2023/10/11 17:27:04;;;;;;;;;;;;;;;;;;2212645;58;2280;-17
2023/10/11 17:29:36;;;;;;;;;;;;;;;;;;2212846;58;2176;-17
2023/10/11 17:32:06;;;;;;;;;;;;;;;;;;2213124;58;4182;-17
2023/10/11 17:34:36;;;;;;;;;;;;;;;;;;2215394;58;2561;-17
2023/10/11 17:37:06;;;;;;;;;;;;;;;;;;2214054;66;2123;-18
2023/10/11 17:39:37;;;;;;;;;;;;;;;;;;2215245;58;3222;-18
2023/10/11 17:42:08;;;;;;;;;;;;;;;;;;2213838;58;3425;-17
2023/10/11 17:44:40;;;;;;;;;;;;;;;;;;2215029;58;2172;-18
2023/10/11 17:47:10;;;;;;;;;;;;;;;;;;2215252;59;1738;-17
2023/10/11 17:49:40;;;;;;;;;;;;;;;;;;2214244;58;3121;-17
2023/10/11 17:52:11;;;;;;;;;;;;;;;;;;2215081;58;2421;-17
2023/10/11 17:54:42;;;;;;;;;;;;;;;;;;2214983;59;3313;-17
2023/10/11 17:57:12;;;;;;;;;;;;;;;;;;2215537;66;2044;-18
2023/10/11 17:59:43;;;;;;;;;;;;;;;;;;2213352;59;3516;-17
2023/10/11 18:02:13;;;;;;;;;;;;;;;;;;2215652;59;3962;-17
2023/10/11 18:04:44;;;;;;;;;;;;;;;;;;2215483;58;2214;-18
2023/10/11 18:07:14;;;;;;;;;;;;;;;;;;2217240;58;1790;-17
2023/10/11 18:09:45;;;;;;;;;;;;;;;;;;2215858;58;2541;-17
2023/10/11 18:12:15;;;;;;;;;;;;;;;;;;2215549;66;2650;-18
2023/10/11 18:14:45;;;;;;;;;;;;;;;;;;2216239;58;3660;-17
2023/10/11 18:17:16;;;;;;;;;;;;;;;;;;2215671;58;2727;-17
2023/10/11 18:19:46;;;;;;;;;;;;;;;;;;2215696;58;3254;-17
2023/10/11 18:22:17;;;;;;;;;;;;;;;;;;2212902;66;3216;-18
2023/10/11 18:24:49;;;;;;;;;;;;;;;;;;2216445;59;2732;-18
2023/10/11 18:27:20;;;;;;;;;;;;;;;;;;2215213;58;2482;-18
2023/10/11 18:29:50;;;;;;;;;;;;;;;;;;2214920;63;2291;-17
2023/10/11 18:32:22;;;;;;;;;;;;;;;;;;2216033;59;2527;-17
2023/10/11 18:34:52;;;;;;;;;;;;;;;;;;2215376;59;2424;-18